Terminal Aerodrome Forecast
Issued by NWS Atlanta, GA

Home | Current Version | Previous Version | Text Only | Print | Product List | Glossary On
Versions: 1 2 3 4 5 6 7 8 9 10 11 12 13 14 15 16 17 18 19 20 21 22 23 24 25 26 27 28 29 30 31 32 33 34 35 36 37 38 39 40 41 42
000
FTUS42 KFFC 242324
TAFATL
TAF
KATL 242324Z 2500/2606 08007KT P6SM SCT035
      TEMPO 2500/2504 VRB10G15KT 4SM TSRA OVC025CB
     FM250400 10005KT P6SM VCSH OVC015
     FM250700 10005KT P6SM OVC007
     FM251100 09005KT P6SM VCSH OVC004
     FM251500 10005KT P6SM VCSH OVC015
     FM252000 12005KT 4SM TSRA OVC025CB
     FM260000 14005KT P6SM VCSH OVC040=

USA.gov is the U.S. government's official web portal to all federal, state and local government web resources and services.